Pagrindinis puslapis
METAR-TAF:

METAR-TAF

Oro uostai :

Tebesa, Alžyras

platuma: 35-29N, ilguma: 008-08E, Aukštis: 813 m

Dabartinis oras

Ataskaita buvo paskelbta 1 valandą ir 37 minutes, ne 23:00 UTC
Vėjas 5 kt iš Rytų
Temperatūra 28°C
Drėgmė 22%
Slėgis 1022 hPa
Matomumas 10 km arba daugiau
nėra debesų žemiau 1500 m ir nėra kamuolinių lietaus debesų

METAR: DABS 182300Z 10005KT CAVOK 28/04 Q1022

Laikas: 01:37 (00:37 UTC)

Prognozė

Ataskaita buvo paskelbta 1 valandą ir 37 minutes, ne 23:00 UTC
Prognozė galioja nuo 19 metu 00 UTC su 19 metu 24 UTC
Vėjas 8 kt iš Rytų
Matomumas 10 km arba daugiau
nėra debesų žemiau 1500 m ir nėra kamuolinių lietaus debesų
Tikimybė 40% :
Laikinai
nuo 19 metu 12 UTC su 19 metu 20 UTC
Vėjas 12 kt iš Šiaurės/Šiaurės Rytų
Mažai debesys ne aukštis 2300 ft, Liūtiniai kamuoliniai debesys.

TAF: DABS 182300Z 1900/1924 10008KT CAVOK PROB40 TEMPO 1912/1920 02012KT FEW023CB

Orai ataskaitas ir orų prognozės (METAR, TAF).

turimą stotys yra geltonos ir raudonos taškus žemėlapyje.

Perkelti pele per norėdami pamatyti stoties vardą.

Tada spustelėkite, norėdami matyti oro stebėjimo ir prognozės.

Norėdami pakeisti žemėlapį: spustelėkite ant žalios mygtukų su juodo kryžiaus žemyn,; žalią mygtuką su brūkšneliu, jei norite nutolinti; arba žalių rodyklių gretimoms žemėlapius.


METAR-TAF: